Time;durP1;ratioP1;P1;durP2;ratioP2;P2;SDS_P1;SDS_P2;PMS_P1;PMS_P2;Temp;Humidity;BMP_temperature;BMP_pressure;BME280_temperature;BME280_humidity;BME280_pressure;Samples;Min_cycle;Max_cycle;Signal;HPM_P1;HPM_P2
2023/04/24 00:00:25;;;;;;;9.52;8.50;;;16.00;96.10;;;;;;6156266;23;20463;-71
2023/04/24 00:02:50;;;;;;;12.55;8.85;;;16.00;96.00;;;;;;6156719;23;20009;-72
2023/04/24 00:05:17;;;;;;;9.82;8.25;;;15.90;96.00;;;;;;6156375;23;20339;-71
2023/04/24 00:07:44;;;;;;;10.23;8.70;;;15.90;96.10;;;;;;6156410;23;20033;-71
2023/04/24 00:10:11;;;;;;;10.35;9.00;;;15.90;95.70;;;;;;6156484;23;20008;-71
2023/04/24 00:12:37;;;;;;;11.98;8.23;;;15.90;95.40;;;;;;6130389;23;20006;-71
2023/04/24 00:15:05;;;;;;;11.75;7.00;;;15.80;95.50;;;;;;6156366;23;20016;-71
2023/04/24 00:17:31;;;;;;;10.85;7.97;;;15.80;95.10;;;;;;6156384;23;20105;-72
2023/04/24 00:20:00;;;;;;;11.07;8.02;;;15.80;95.20;;;;;;6156059;23;20045;-71
2023/04/24 00:22:27;;;;;;;12.45;7.55;;;15.70;94.90;;;;;;6156251;23;20002;-71
2023/04/24 00:24:53;;;;;;;10.32;7.45;;;15.70;94.80;;;;;;6130688;23;20343;-71
2023/04/24 00:27:19;;;;;;;14.15;7.35;;;15.80;94.70;;;;;;6156371;23;20077;-71
2023/04/24 00:29:45;;;;;;;7.07;5.97;;;15.70;94.60;;;;;;6156461;23;20012;-71
2023/04/24 00:32:11;;;;;;;12.77;6.90;;;15.80;94.20;;;;;;6156253;23;20380;-72
2023/04/24 00:34:37;;;;;;;9.70;6.28;;;15.70;93.70;;;;;;6155953;23;20340;-71
2023/04/24 00:37:03;;;;;;;7.90;6.15;;;15.70;93.70;;;;;;6155790;23;20004;-71
2023/04/24 00:39:29;;;;;;;9.98;6.13;;;15.80;93.50;;;;;;6155841;23;20005;-72
2023/04/24 00:41:55;;;;;;;8.20;6.40;;;15.70;93.60;;;;;;6155959;23;20001;-71
2023/04/24 00:44:20;;;;;;;13.82;6.72;;;15.70;93.30;;;;;;6155966;23;20009;-72
2023/04/24 00:46:51;;;;;;;8.60;6.03;;;15.80;93.20;;;;;;6156095;23;20009;-71
2023/04/24 00:49:18;;;;;;;11.13;6.30;;;15.70;93.00;;;;;;6156152;23;20081;-71
2023/04/24 00:51:45;;;;;;;12.20;6.07;;;15.70;93.00;;;;;;6155618;23;20351;-71
2023/04/24 00:54:12;;;;;;;8.95;6.40;;;15.70;93.00;;;;;;6156099;23;20088;-71
2023/04/24 00:56:38;;;;;;;14.40;6.97;;;15.70;93.10;;;;;;6156140;23;20432;-71
2023/04/24 00:59:04;;;;;;;8.43;5.82;;;15.70;93.10;;;;;;6153152;23;20013;-71
2023/04/24 01:01:30;;;;;;;9.27;5.65;;;15.70;93.00;;;;;;6152629;23;20439;-71
2023/04/24 01:03:57;;;;;;;7.78;5.72;;;15.70;93.10;;;;;;6126780;23;20081;-71
2023/04/24 01:06:26;;;;;;;10.63;5.93;;;15.70;92.90;;;;;;6155486;23;20060;-71
2023/04/24 01:08:51;;;;;;;7.75;5.45;;;15.70;93.00;;;;;;6155883;23;20010;-72
2023/04/24 01:11:18;;;;;;;9.27;5.20;;;15.70;92.80;;;;;;6155955;23;20064;-72
2023/04/24 01:13:44;;;;;;;6.45;4.65;;;15.70;92.60;;;;;;6155483;23;20006;-72
2023/04/24 01:16:10;;;;;;;6.60;4.70;;;15.70;91.80;;;;;;6155442;23;20012;-72
2023/04/24 01:18:37;;;;;;;6.63;4.88;;;15.80;91.30;;;;;;6155699;23;20432;-71
2023/04/24 01:21:04;;;;;;;8.23;5.20;;;15.80;91.00;;;;;;6155668;23;20041;-71
2023/04/24 01:23:30;;;;;;;5.30;4.35;;;15.80;91.00;;;;;;6155569;23;20121;-71
2023/04/24 01:25:56;;;;;;;11.45;5.57;;;15.90;90.90;;;;;;6155623;23;20026;-71
2023/04/24 01:28:22;;;;;;;6.28;5.07;;;15.90;91.00;;;;;;6129144;23;20025;-71
2023/04/24 01:30:48;;;;;;;6.18;4.60;;;15.90;91.30;;;;;;6155499;23;20023;-71
2023/04/24 01:33:14;;;;;;;6.13;4.95;;;15.90;91.40;;;;;;6155525;23;20017;-71
2023/04/24 01:35:40;;;;;;;7.20;4.68;;;15.90;91.80;;;;;;6155459;23;20016;-71
2023/04/24 01:38:06;;;;;;;8.50;5.00;;;15.90;91.50;;;;;;6155487;23;20004;-71
2023/04/24 01:40:32;;;;;;;5.70;4.32;;;15.90;91.40;;;;;;6155556;23;20014;-71
2023/04/24 01:42:58;;;;;;;8.15;4.90;;;15.90;91.20;;;;;;6155830;23;20031;-72
2023/04/24 01:45:25;;;;;;;8.30;4.97;;;15.90;91.20;;;;;;6155532;23;20001;-71
2023/04/24 01:47:50;;;;;;;6.40;4.78;;;15.90;91.10;;;;;;6155544;23;20005;-71
2023/04/24 01:50:17;;;;;;;7.70;4.45;;;16.00;91.20;;;;;;6155131;23;20424;-72
2023/04/24 01:52:42;;;;;;;8.43;4.57;;;15.90;91.60;;;;;;6155288;23;20037;-72
2023/04/24 01:55:09;;;;;;;7.88;4.90;;;15.90;91.70;;;;;;6155452;23;20009;-72
2023/04/24 01:57:35;;;;;;;10.25;5.00;;;15.90;92.00;;;;;;6155815;23;20001;-71
2023/04/24 02:00:04;;;;;;;7.28;4.45;;;15.90;91.90;;;;;;6155429;23;20025;-71
2023/04/24 02:02:30;;;;;;;7.78;4.78;;;15.90;92.00;;;;;;6155656;23;20084;-72
2023/04/24 02:04:56;;;;;;;7.13;4.30;;;15.90;92.20;;;;;;6155794;23;20010;-71
2023/04/24 02:07:22;;;;;;;8.13;4.78;;;15.90;92.00;;;;;;6155669;23;20073;-71
2023/04/24 02:09:48;;;;;;;8.30;4.43;;;15.90;91.80;;;;;;6155849;23;20001;-71
2023/04/24 02:12:14;;;;;;;10.60;4.72;;;15.90;91.80;;;;;;6156687;23;20059;-71
2023/04/24 02:14:42;;;;;;;8.55;4.63;;;15.90;91.90;;;;;;6158894;23;20037;-72
2023/04/24 02:17:08;;;;;;;7.72;4.28;;;15.90;92.00;;;;;;6158688;23;20006;-72
2023/04/24 02:19:33;;;;;;;7.05;4.88;;;15.90;92.20;;;;;;6158935;23;20009;-71
2023/04/24 02:21:59;;;;;;;10.13;4.63;;;15.80;92.60;;;;;;6158521;23;20069;-71
2023/04/24 02:24:25;;;;;;;6.72;4.60;;;15.70;92.50;;;;;;6158759;23;20511;-71
2023/04/24 02:26:51;;;;;;;11.18;5.00;;;15.70;92.50;;;;;;6158940;23;19998;-71
2023/04/24 02:29:16;;;;;;;5.65;4.45;;;15.80;92.50;;;;;;6158758;23;20440;-71
2023/04/24 02:31:42;;;;;;;12.38;4.45;;;15.80;92.40;;;;;;6158732;23;20002;-72
2023/04/24 02:34:08;;;;;;;8.45;5.30;;;15.80;92.30;;;;;;6158483;23;20050;-72
2023/04/24 02:36:33;;;;;;;9.70;5.28;;;15.80;92.30;;;;;;6158662;23;20052;-71
2023/04/24 02:39:00;;;;;;;8.52;4.15;;;15.80;92.10;;;;;;6159046;23;20028;-72
2023/04/24 02:41:31;;;;;;;8.63;4.85;;;15.80;92.20;;;;;;6158716;23;20033;-71
2023/04/24 02:43:57;;;;;;;6.07;4.43;;;15.80;92.00;;;;;;6158547;23;20008;-71
2023/04/24 02:46:23;;;;;;;10.60;4.50;;;15.80;91.70;;;;;;6158490;23;20033;-71
2023/04/24 02:48:49;;;;;;;7.88;4.35;;;15.80;91.70;;;;;;6158531;23;20435;-71
2023/04/24 02:51:15;;;;;;;7.80;4.50;;;15.80;92.00;;;;;;6158237;23;20025;-71
2023/04/24 02:53:40;;;;;;;9.27;4.57;;;15.80;92.50;;;;;;6158364;23;20004;-71
2023/04/24 02:56:06;;;;;;;9.77;4.40;;;15.80;92.60;;;;;;6158916;23;20019;-71
2023/04/24 02:58:32;;;;;;;8.93;4.70;;;15.70;92.50;;;;;;6158685;23;20060;-71
2023/04/24 03:00:58;;;;;;;9.55;4.25;;;15.80;92.70;;;;;;6158363;23;20001;-71
2023/04/24 03:03:23;;;;;;;9.93;4.47;;;15.70;93.00;;;;;;6158435;23;20072;-71
2023/04/24 03:05:50;;;;;;;8.93;4.65;;;15.70;92.70;;;;;;6158897;23;20006;-71
2023/04/24 03:08:15;;;;;;;9.68;3.75;;;15.70;92.70;;;;;;6158617;23;20001;-71
2023/04/24 03:10:41;;;;;;;11.45;4.72;;;15.70;92.70;;;;;;6158257;23;20013;-71
2023/04/24 03:13:07;;;;;;;7.05;4.28;;;15.70;92.80;;;;;;6158630;23;20332;-72
2023/04/24 03:15:32;;;;;;;8.00;4.68;;;15.70;92.70;;;;;;6158182;23;20013;-71
2023/04/24 03:17:58;;;;;;;6.25;3.83;;;15.70;92.60;;;;;;6158432;23;20012;-71
2023/04/24 03:20:24;;;;;;;8.25;4.03;;;15.70;92.80;;;;;;6158264;23;20006;-72
2023/04/24 03:22:50;;;;;;;11.20;4.18;;;15.70;92.80;;;;;;6158343;23;20052;-72
2023/04/24 03:25:16;;;;;;;11.73;4.32;;;15.70;93.20;;;;;;6156458;23;20336;-72
2023/04/24 03:27:41;;;;;;;7.40;3.83;;;15.60;93.20;;;;;;6157105;23;20002;-72
2023/04/24 03:30:08;;;;;;;8.65;4.15;;;15.60;93.40;;;;;;6156806;23;20440;-71
2023/04/24 03:32:34;;;;;;;7.15;4.22;;;15.60;93.30;;;;;;6157061;23;20006;-71
2023/04/24 03:35:00;;;;;;;11.27;4.00;;;15.60;93.20;;;;;;6156863;23;20096;-71
2023/04/24 03:37:26;;;;;;;7.10;3.85;;;15.60;93.20;;;;;;6156845;23;20479;-72
2023/04/24 03:39:52;;;;;;;8.52;3.95;;;15.60;92.90;;;;;;6157052;23;20029;-71
2023/04/24 03:42:18;;;;;;;13.02;5.18;;;15.60;93.00;;;;;;6156597;23;20005;-71
2023/04/24 03:44:44;;;;;;;10.40;4.50;;;15.70;92.90;;;;;;6156607;23;20012;-71
2023/04/24 03:47:09;;;;;;;9.82;3.97;;;15.60;92.90;;;;;;6156426;23;20072;-71
2023/04/24 03:49:35;;;;;;;7.80;4.32;;;15.60;92.90;;;;;;6156274;23;20444;-71
2023/04/24 03:52:01;;;;;;;8.90;4.15;;;15.60;92.80;;;;;;6156154;23;20018;-72
2023/04/24 03:54:27;;;;;;;10.95;4.80;;;15.60;93.00;;;;;;6156652;23;20084;-71
2023/04/24 03:56:53;;;;;;;8.70;4.10;;;15.50;93.20;;;;;;6156935;23;20357;-71
2023/04/24 03:59:19;;;;;;;7.40;4.38;;;15.50;93.40;;;;;;6156326;23;20001;-71
2023/04/24 04:01:45;;;;;;;9.10;4.93;;;15.50;93.40;;;;;;6156254;23;20008;-71
2023/04/24 04:04:11;;;;;;;7.05;4.70;;;15.50;93.40;;;;;;6156383;23;20008;-72
2023/04/24 04:06:37;;;;;;;8.93;4.75;;;15.50;93.20;;;;;;6156289;23;20076;-71
2023/04/24 04:09:03;;;;;;;6.50;4.22;;;15.50;93.00;;;;;;6156623;23;20056;-71
2023/04/24 04:11:30;;;;;;;8.25;5.22;;;15.50;93.40;;;;;;6156476;23;20002;-71
2023/04/24 04:13:56;;;;;;;8.82;4.45;;;15.50;93.60;;;;;;6156397;23;20109;-72
2023/04/24 04:16:22;;;;;;;6.78;4.28;;;15.50;93.60;;;;;;6156574;23;20012;-71
2023/04/24 04:18:48;;;;;;;9.13;4.55;;;15.50;93.70;;;;;;6156467;23;20004;-71
2023/04/24 04:21:14;;;;;;;13.23;5.07;;;15.50;93.60;;;;;;6156296;23;20006;-72
2023/04/24 04:23:40;;;;;;;9.23;4.72;;;15.50;93.70;;;;;;6156123;23;20443;-71
2023/04/24 04:26:06;;;;;;;11.30;5.35;;;15.50;93.70;;;;;;6156741;23;20064;-72
2023/04/24 04:28:32;;;;;;;12.05;5.47;;;15.50;93.60;;;;;;6156590;23;20005;-71
2023/04/24 04:30:58;;;;;;;7.80;4.53;;;15.50;93.50;;;;;;6156150;23;20384;-72
2023/04/24 04:33:25;;;;;;;9.88;4.78;;;15.40;93.40;;;;;;6156302;23;20085;-72
2023/04/24 04:35:56;;;;;;;11.80;4.80;;;15.50;93.40;;;;;;6155870;23;20014;-71
2023/04/24 04:38:22;;;;;;;10.82;4.80;;;15.50;93.60;;;;;;6156084;23;20001;-71
2023/04/24 04:40:48;;;;;;;10.95;4.95;;;15.50;93.50;;;;;;6156180;23;20011;-71
2023/04/24 04:43:15;;;;;;;9.50;4.25;;;15.40;93.60;;;;;;6155993;23;19998;-71
2023/04/24 04:45:43;;;;;;;8.70;4.35;;;15.50;93.60;;;;;;6129853;23;20096;-71
2023/04/24 04:48:09;;;;;;;14.02;4.55;;;15.50;93.50;;;;;;6156067;23;20336;-72
2023/04/24 04:50:35;;;;;;;7.68;4.60;;;15.40;93.80;;;;;;6156123;23;20507;-71
2023/04/24 04:53:01;;;;;;;10.88;4.65;;;15.40;93.60;;;;;;6156100;23;20021;-71
2023/04/24 04:55:27;;;;;;;8.07;4.55;;;15.40;93.90;;;;;;6155776;23;20016;-72
2023/04/24 04:57:53;;;;;;;8.00;4.63;;;15.40;93.80;;;;;;6129455;23;20016;-71
2023/04/24 05:00:19;;;;;;;10.85;4.82;;;15.40;93.70;;;;;;6155750;23;20001;-71
2023/04/24 05:02:44;;;;;;;8.40;4.65;;;15.40;94.00;;;;;;6155998;23;20077;-71
2023/04/24 05:05:10;;;;;;;7.50;4.40;;;15.40;93.50;;;;;;6155812;23;20029;-71
2023/04/24 05:07:36;;;;;;;6.45;4.22;;;15.40;93.40;;;;;;6155676;23;20001;-71
2023/04/24 05:10:02;;;;;;;7.45;4.80;;;15.40;93.60;;;;;;6155184;23;20096;-72
2023/04/24 05:12:28;;;;;;;11.40;4.63;;;15.40;93.50;;;;;;6155439;23;20001;-71
2023/04/24 05:14:54;;;;;;;11.05;4.50;;;15.40;93.40;;;;;;6155962;23;20013;-71
2023/04/24 05:17:20;;;;;;;7.90;4.20;;;15.40;93.30;;;;;;6155688;23;20072;-71
2023/04/24 05:19:46;;;;;;;9.25;4.63;;;15.40;93.30;;;;;;6156228;23;20013;-71
2023/04/24 05:22:12;;;;;;;8.40;4.03;;;15.40;93.20;;;;;;6155963;23;20001;-71
2023/04/24 05:24:38;;;;;;;10.68;4.80;;;15.40;93.20;;;;;;6155713;23;20005;-71
2023/04/24 05:27:07;;;;;;;8.65;4.30;;;15.50;93.20;;;;;;6155791;23;20068;-71
2023/04/24 05:29:33;;;;;;;8.15;3.65;;;15.40;93.10;;;;;;6155831;23;20331;-71
2023/04/24 05:32:00;;;;;;;11.10;4.35;;;15.40;93.30;;;;;;6156013;23;20005;-71
2023/04/24 05:34:26;;;;;;;10.75;4.45;;;15.40;93.70;;;;;;6155426;23;20013;-71
2023/04/24 05:36:51;;;;;;;9.82;4.85;;;15.40;93.70;;;;;;6155688;23;20447;-71
2023/04/24 05:39:17;;;;;;;9.65;4.22;;;15.40;93.50;;;;;;6129406;23;20013;-71
2023/04/24 05:41:43;;;;;;;13.15;5.38;;;15.40;93.30;;;;;;6155354;23;20001;-71
2023/04/24 05:44:09;;;;;;;12.02;4.32;;;15.50;93.00;;;;;;6155468;23;20024;-71
2023/04/24 05:46:35;;;;;;;12.02;4.43;;;15.50;92.50;;;;;;6155043;23;20072;-71
2023/04/24 05:49:01;;;;;;;11.00;5.10;;;15.50;92.40;;;;;;6155658;23;20011;-71
2023/04/24 05:51:27;;;;;;;6.40;4.05;;;15.50;92.10;;;;;;6155223;23;20024;-71
2023/04/24 05:53:53;;;;;;;12.50;4.10;;;15.60;92.10;;;;;;6155356;23;20005;-72
2023/04/24 05:56:20;;;;;;;10.10;4.15;;;15.50;91.90;;;;;;6155535;23;20001;-71
2023/04/24 05:58:46;;;;;;;11.05;3.88;;;15.60;91.70;;;;;;6155408;23;20074;-71
2023/04/24 06:01:13;;;;;;;12.57;4.68;;;15.60;91.40;;;;;;6155242;23;20033;-71
2023/04/24 06:03:41;;;;;;;8.00;4.22;;;15.60;91.40;;;;;;6155162;23;20076;-71
2023/04/24 06:06:07;;;;;;;7.65;4.03;;;15.70;91.70;;;;;;6155350;23;20364;-71
2023/04/24 06:08:34;;;;;;;12.35;4.13;;;15.70;91.70;;;;;;6153108;23;20087;-73
2023/04/24 06:11:00;;;;;;;10.10;4.05;;;15.70;91.90;;;;;;6154644;23;20006;-72
2023/04/24 06:13:25;;;;;;;9.60;4.35;;;15.70;92.20;;;;;;6154984;23;20076;-75
2023/04/24 06:15:52;;;;;;;9.43;4.65;;;15.60;93.00;;;;;;6154674;23;20112;-74
2023/04/24 06:18:18;;;;;;;9.52;4.43;;;15.60;93.60;;;;;;6154388;23;20440;-71
2023/04/24 06:20:45;;;;;;;7.82;4.10;;;15.50;93.70;;;;;;6128260;23;20009;-76
2023/04/24 06:23:11;;;;;;;9.95;4.45;;;15.50;93.70;;;;;;6154574;23;20009;-72
2023/04/24 06:25:37;;;;;;;11.07;5.38;;;15.50;93.80;;;;;;6129036;23;20436;-75
2023/04/24 06:28:03;;;;;;;10.45;4.72;;;15.50;94.40;;;;;;6128588;23;20039;-72
2023/04/24 06:30:29;;;;;;;8.05;4.50;;;15.50;94.30;;;;;;6128811;23;20009;-73
2023/04/24 06:32:55;;;;;;;10.00;4.60;;;15.50;94.40;;;;;;6154697;23;20471;-72
2023/04/24 06:35:21;;;;;;;11.95;5.07;;;15.40;94.50;;;;;;6154068;23;20020;-71
2023/04/24 06:37:46;;;;;;;11.63;5.85;;;15.50;94.60;;;;;;6154182;23;20037;-73
2023/04/24 06:40:12;;;;;;;13.10;4.90;;;15.40;94.90;;;;;;6154597;23;20375;-71
2023/04/24 06:42:38;;;;;;;8.00;5.50;;;15.50;95.00;;;;;;6154404;23;20010;-73
2023/04/24 06:45:05;;;;;;;13.77;5.60;;;15.50;95.30;;;;;;6154689;23;20399;-71
2023/04/24 06:47:32;;;;;;;13.65;5.78;;;15.50;95.40;;;;;;6154257;23;20008;-75
2023/04/24 06:49:58;;;;;;;14.20;5.68;;;15.40;95.60;;;;;;6154556;23;20029;-71
2023/04/24 06:52:24;;;;;;;12.73;6.00;;;15.40;96.10;;;;;;6154238;23;20014;-73
2023/04/24 06:54:50;;;;;;;17.00;5.78;;;15.30;96.70;;;;;;6154913;23;20394;-71
2023/04/24 06:57:18;;;;;;;10.38;5.25;;;15.30;96.90;;;;;;6154775;23;20072;-72
2023/04/24 06:59:43;;;;;;;10.43;5.88;;;15.20;97.10;;;;;;6088686;23;20457;-72
2023/04/24 07:02:10;;;;;;;15.05;5.68;;;15.10;97.20;;;;;;6098010;23;20009;-76
2023/04/24 07:04:36;;;;;;;9.68;6.00;;;15.10;97.50;;;;;;6097990;23;20013;-72
2023/04/24 07:07:02;;;;;;;11.90;6.13;;;15.10;98.00;;;;;;6097517;23;20008;-71
2023/04/24 07:09:29;;;;;;;13.07;6.13;;;15.00;98.10;;;;;;6097504;23;20007;-77
2023/04/24 07:11:56;;;;;;;12.70;6.25;;;15.10;98.50;;;;;;6071684;23;20073;-71
2023/04/24 07:14:22;;;;;;;11.93;6.35;;;15.00;98.30;;;;;;6096911;23;20018;-71
2023/04/24 07:16:48;;;;;;;13.35;6.75;;;15.10;98.30;;;;;;6095725;23;20025;-72
2023/04/24 07:19:14;;;;;;;10.63;6.07;;;15.10;98.20;;;;;;6096938;23;20010;-72
2023/04/24 07:21:41;;;;;;;12.95;6.10;;;15.10;98.10;;;;;;6096999;23;20053;-72
2023/04/24 07:24:10;;;;;;;13.52;6.97;;;15.00;98.20;;;;;;6097219;23;20002;-72
2023/04/24 07:26:37;;;;;;;13.02;6.25;;;15.10;98.40;;;;;;6097142;23;20003;-73
2023/04/24 07:29:03;;;;;;;12.77;6.35;;;15.00;98.40;;;;;;6097543;23;20011;-71
2023/04/24 07:31:29;;;;;;;15.43;6.97;;;15.00;98.70;;;;;;6097793;23;20480;-72
2023/04/24 07:33:57;;;;;;;15.55;6.50;;;15.00;98.80;;;;;;6097818;23;19998;-72
2023/04/24 07:36:24;;;;;;;14.93;7.03;;;14.90;98.90;;;;;;6097764;23;20100;-72
2023/04/24 07:38:49;;;;;;;13.75;6.70;;;14.90;99.00;;;;;;6097711;23;20009;-70
2023/04/24 07:41:15;;;;;;;15.77;6.30;;;14.90;99.10;;;;;;6097419;23;20365;-70
2023/04/24 07:43:41;;;;;;;15.10;7.47;;;14.90;99.00;;;;;;6097495;23;19999;-70
2023/04/24 07:46:08;;;;;;;11.63;6.35;;;14.90;99.00;;;;;;6097362;23;20007;-70
2023/04/24 07:48:34;;;;;;;10.80;6.38;;;14.90;99.00;;;;;;6097570;23;20419;-71
2023/04/24 07:51:00;;;;;;;17.58;6.95;;;14.90;99.00;;;;;;6109492;23;20022;-70
2023/04/24 07:53:26;;;;;;;13.35;6.20;;;14.90;99.30;;;;;;6127255;23;20129;-70
2023/04/24 07:55:53;;;;;;;14.10;5.90;;;14.90;99.50;;;;;;6126962;23;20061;-70
2023/04/24 07:58:19;;;;;;;12.82;7.10;;;14.90;99.40;;;;;;6126629;23;19998;-70
2023/04/24 08:00:45;;;;;;;10.43;5.80;;;14.90;99.40;;;;;;6127386;23;20014;-69
2023/04/24 08:03:12;;;;;;;12.25;6.18;;;15.00;99.30;;;;;;6127094;23;19998;-70
2023/04/24 08:05:38;;;;;;;14.52;7.20;;;15.00;99.30;;;;;;6126925;23;20005;-70
2023/04/24 08:08:03;;;;;;;12.13;7.57;;;15.00;99.40;;;;;;6126798;23;20447;-70
2023/04/24 08:10:29;;;;;;;13.18;7.05;;;15.00;99.40;;;;;;6126591;23;20049;-70
2023/04/24 08:12:55;;;;;;;14.85;6.75;;;14.90;99.50;;;;;;6125424;23;20010;-69
2023/04/24 08:15:21;;;;;;;12.48;6.47;;;14.90;99.70;;;;;;6126333;23;20010;-69
2023/04/24 08:17:47;;;;;;;13.88;6.70;;;14.90;99.80;;;;;;6126648;23;20009;-70
2023/04/24 08:20:15;;;;;;;14.77;6.00;;;14.80;99.90;;;;;;6126760;23;20302;-70
2023/04/24 08:22:42;;;;;;;14.00;7.63;;;14.80;99.90;;;;;;6126798;23;20325;-70
2023/04/24 08:25:09;;;;;;;16.35;7.43;;;14.80;99.90;;;;;;6126890;23;20080;-69
2023/04/24 08:27:36;;;;;;;13.93;7.10;;;14.80;99.90;;;;;;6123674;23;20073;-70
2023/04/24 08:30:03;;;;;;;13.48;6.82;;;14.80;99.90;;;;;;6125846;23;20002;-70
2023/04/24 08:32:28;;;;;;;15.50;6.85;;;14.80;99.90;;;;;;6125762;23;20029;-69
2023/04/24 08:34:56;;;;;;;16.58;6.95;;;14.80;99.90;;;;;;6126344;23;20017;-70
2023/04/24 08:37:22;;;;;;;9.95;6.55;;;14.80;99.90;;;;;;6126683;23;20076;-69
2023/04/24 08:39:49;;;;;;;13.65;6.50;;;14.80;99.90;;;;;;6126792;23;20370;-70
2023/04/24 08:42:17;;;;;;;12.27;6.15;;;14.80;99.90;;;;;;6126805;23;20329;-69
2023/04/24 08:44:44;;;;;;;10.93;6.40;;;14.80;99.90;;;;;;6126628;23;20006;-70
2023/04/24 08:47:11;;;;;;;16.05;6.60;;;14.90;99.90;;;;;;6126542;23;20062;-70
2023/04/24 08:49:38;;;;;;;15.45;7.03;;;14.80;99.90;;;;;;6126419;23;20455;-69
2023/04/24 08:52:05;;;;;;;12.32;6.55;;;14.80;99.90;;;;;;6126439;23;20471;-70
2023/04/24 08:54:33;;;;;;;12.05;7.18;;;14.80;99.90;;;;;;6125860;23;20010;-70
2023/04/24 08:57:03;;;;;;;16.20;6.82;;;14.80;99.90;;;;;;6126463;23;20561;-69
2023/04/24 08:59:33;;;;;;;14.27;6.15;;;14.80;99.90;;;;;;6126103;23;20029;-70
2023/04/24 09:02:00;;;;;;;11.98;6.57;;;14.80;99.90;;;;;;6126299;23;20006;-69
2023/04/24 09:04:26;;;;;;;16.48;6.55;;;14.80;99.90;;;;;;6126046;23;20013;-70
2023/04/24 09:06:56;;;;;;;8.70;6.28;;;14.80;99.90;;;;;;6125916;23;20504;-70
2023/04/24 09:09:24;;;;;;;10.00;5.97;;;14.80;99.90;;;;;;6124103;23;20010;-70
2023/04/24 09:11:53;;;;;;;12.13;6.03;;;14.80;99.90;;;;;;6124794;23;20436;-70
2023/04/24 09:14:20;;;;;;;11.43;6.53;;;14.80;99.90;;;;;;6124438;23;20013;-70
2023/04/24 09:16:46;;;;;;;9.82;6.22;;;14.80;99.90;;;;;;6124632;23;20005;-70
2023/04/24 09:19:12;;;;;;;15.00;7.40;;;14.80;99.90;;;;;;6123404;23;20153;-70
2023/04/24 09:21:38;;;;;;;11.10;7.07;;;14.80;99.90;;;;;;6123367;23;20105;-70
2023/04/24 09:24:14;;;;;;;16.60;6.65;;;14.70;99.90;;;;;;6124116;23;20005;-70
2023/04/24 09:26:40;;;;;;;12.77;6.45;;;14.70;99.90;;;;;;6125963;23;20013;-69
2023/04/24 09:29:06;;;;;;;9.82;6.45;;;14.80;99.90;;;;;;6125958;23;20070;-69
2023/04/24 09:31:32;;;;;;;17.30;7.47;;;14.70;99.90;;;;;;6123341;23;20028;-70
2023/04/24 09:34:05;;;;;;;12.88;6.75;;;14.70;99.90;;;;;;6122629;23;20002;-70
2023/04/24 09:36:39;;;;;;;17.05;7.57;;;14.70;99.90;;;;;;6123182;23;20014;-70
2023/04/24 09:39:15;;;;;;;13.82;7.22;;;14.70;99.90;;;;;;6122580;23;20425;-70
2023/04/24 09:41:47;;;;;;;11.23;6.13;;;14.70;99.90;;;;;;6122408;23;20037;-70
2023/04/24 09:44:15;;;;;;;357.23;17.95;;;14.70;99.90;;;;;;6124130;23;20425;-69
2023/04/24 09:46:43;;;;;;;1999.90;128.85;;;14.70;99.90;;;;;;6124433;23;20088;-70
2023/04/24 09:49:13;;;;;;;325.20;19.02;;;14.70;99.90;;;;;;6125939;23;20016;-70
2023/04/24 09:51:40;;;;;;;18.77;8.35;;;14.80;99.90;;;;;;6125824;23;20017;-70
2023/04/24 09:54:23;;;;;;;302.80;24.17;;;14.80;99.90;;;;;;6125792;23;20010;-70
2023/04/24 09:56:50;;;;;;;422.45;27.77;;;14.80;99.90;;;;;;6125820;23;20010;-69
2023/04/24 09:59:18;;;;;;;48.88;12.38;;;14.80;99.90;;;;;;6125895;23;20420;-70
2023/04/24 10:01:44;;;;;;;814.33;54.70;;;14.90;99.90;;;;;;6125642;23;20013;-69
2023/04/24 10:04:20;;;;;;;887.42;58.33;;;14.90;99.90;;;;;;6125445;23;20102;-70
2023/04/24 10:06:51;;;;;;;50.05;9.70;;;14.90;99.90;;;;;;6125919;23;20006;-69
2023/04/24 10:09:18;;;;;;;135.38;15.48;;;14.90;99.90;;;;;;6125760;23;20073;-70
2023/04/24 10:11:46;;;;;;;158.45;23.45;;;15.00;99.90;;;;;;6125998;23;20006;-70
2023/04/24 10:14:14;;;;;;;63.08;14.52;;;14.90;99.90;;;;;;6125677;23;20449;-70
2023/04/24 10:16:41;;;;;;;86.45;22.52;;;15.00;99.90;;;;;;6125967;23;19998;-70
2023/04/24 10:19:07;;;;;;;122.22;18.00;;;15.00;99.90;;;;;;6125399;23;20006;-70
2023/04/24 10:21:34;;;;;;;196.15;24.88;;;15.10;99.90;;;;;;6125767;23;20005;-69
2023/04/24 10:24:03;;;;;;;305.08;26.52;;;15.10;99.90;;;;;;6125754;23;20084;-70
2023/04/24 10:26:29;;;;;;;27.23;9.32;;;15.10;99.90;;;;;;6125632;23;20069;-69
2023/04/24 10:28:58;;;;;;;67.68;16.42;;;15.20;99.90;;;;;;6125732;23;20009;-70
2023/04/24 10:31:24;;;;;;;56.17;10.10;;;15.10;99.90;;;;;;6125930;23;19998;-70
2023/04/24 10:33:51;;;;;;;61.92;17.90;;;15.20;99.90;;;;;;6126668;23;20010;-70
2023/04/24 10:36:18;;;;;;;748.03;47.67;;;15.20;99.90;;;;;;6127540;23;20001;-70
2023/04/24 10:38:46;;;;;;;38.42;10.57;;;15.20;99.90;;;;;;6127568;23;20002;-70
2023/04/24 10:41:19;;;;;;;120.85;13.77;;;15.20;99.90;;;;;;6127789;23;20017;-70
2023/04/24 10:43:45;;;;;;;47.17;13.85;;;15.20;99.90;;;;;;6127420;23;20002;-70
2023/04/24 10:46:19;;;;;;;13.77;7.28;;;15.20;99.90;;;;;;6127763;23;20013;-70
2023/04/24 10:48:56;;;;;;;20.20;9.80;;;15.20;99.90;;;;;;6127709;23;20002;-69
2023/04/24 10:51:23;;;;;;;17.45;7.25;;;15.20;99.90;;;;;;6127575;23;20098;-70
2023/04/24 10:53:52;;;;;;;8.73;5.75;;;15.20;99.90;;;;;;6124592;23;20033;-70
2023/04/24 10:56:18;;;;;;;9.43;5.72;;;15.30;99.90;;;;;;6124177;23;20400;-69
2023/04/24 10:58:52;;;;;;;10.82;6.38;;;15.20;99.90;;;;;;6124896;23;19998;-69
2023/04/24 11:01:31;;;;;;;10.07;6.93;;;15.20;99.90;;;;;;6127470;23;20033;-69
2023/04/24 11:03:59;;;;;;;8.88;6.38;;;15.10;99.90;;;;;;6127615;23;20024;-69
2023/04/24 11:06:36;;;;;;;6.63;5.55;;;15.10;99.90;;;;;;6127073;23;20444;-69
2023/04/24 11:09:21;;;;;;;8.10;5.82;;;15.10;99.90;;;;;;6127050;23;20010;-69
2023/04/24 11:11:47;;;;;;;11.18;6.78;;;15.10;99.90;;;;;;6126968;23;20017;-69
2023/04/24 11:14:16;;;;;;;11.05;7.70;;;15.10;99.90;;;;;;6127135;23;20022;-69
2023/04/24 11:16:45;;;;;;;11.32;9.07;;;15.10;99.90;;;;;;6126768;23;20002;-69
2023/04/24 11:19:15;;;;;;;13.63;11.82;;;15.10;99.90;;;;;;6127070;23;20056;-69
2023/04/24 11:21:44;;;;;;;14.38;12.90;;;15.10;99.90;;;;;;6127164;23;20439;-70
2023/04/24 11:24:32;;;;;;;14.20;7.82;;;15.10;99.90;;;;;;6126869;23;20002;-70
2023/04/24 11:27:04;;;;;;;10.45;6.95;;;15.10;99.90;;;;;;6127118;23;20013;-70
2023/04/24 11:29:44;;;;;;;10.40;6.40;;;15.10;99.90;;;;;;6127216;23;20459;-69
2023/04/24 11:32:30;;;;;;;9.05;6.60;;;15.20;99.90;;;;;;6127122;23;20089;-70
2023/04/24 11:35:01;;;;;;;12.65;7.47;;;15.20;99.90;;;;;;6127174;23;20089;-70
2023/04/24 11:37:37;;;;;;;13.07;6.80;;;15.20;99.90;;;;;;6126689;23;20508;-69
2023/04/24 11:40:05;;;;;;;15.68;7.45;;;15.20;99.90;;;;;;6127108;23;20053;-70
2023/04/24 11:42:38;;;;;;;8.73;6.60;;;15.20;99.90;;;;;;6126984;23;20013;-72
2023/04/24 11:45:08;;;;;;;;;;;15.20;99.90;;;;;;6126611;23;19998;-70
2023/04/24 11:47:33;;;;;;;11.60;6.07;;;15.20;99.90;;;;;;6126917;23;20239;-70
2023/04/24 11:50:01;;;;;;;8.68;5.15;;;15.20;99.90;;;;;;6126673;23;20005;-70
2023/04/24 11:52:27;;;;;;;6.82;4.38;;;15.20;99.90;;;;;;6124315;23;20105;-70
2023/04/24 11:54:53;;;;;;;8.00;3.75;;;15.20;99.90;;;;;;6126596;23;20440;-69
2023/04/24 11:57:26;;;;;;;6.63;3.30;;;15.30;99.90;;;;;;6126998;23;20005;-69
2023/04/24 11:59:51;;;;;;;5.03;2.30;;;15.30;99.90;;;;;;6126656;23;20425;-70
2023/04/24 12:02:25;;;;;;;8.02;3.05;;;15.30;99.90;;;;;;6124572;23;20008;-69
2023/04/24 12:04:51;;;;;;;3.67;2.53;;;15.30;99.90;;;;;;6123586;23;20745;-69
2023/04/24 12:07:17;;;;;;;8.93;3.25;;;15.30;99.90;;;;;;6125197;23;20329;-70
2023/04/24 12:09:48;;;;;;;6.50;3.30;;;15.30;99.90;;;;;;6126813;23;20006;-70
2023/04/24 12:12:16;;;;;;;5.20;2.50;;;15.30;99.90;;;;;;6126255;23;20025;-70
2023/04/24 12:14:49;;;;;;;8.10;2.20;;;15.30;99.90;;;;;;6126589;23;20072;-70
2023/04/24 12:17:16;;;;;;;2.58;1.90;;;15.30;99.90;;;;;;6126075;23;20084;-70
2023/04/24 12:19:50;;;;;;;2.90;1.35;;;15.30;99.90;;;;;;6126728;23;20013;-69
2023/04/24 12:22:16;;;;;;;2.67;1.17;;;15.20;99.90;;;;;;6126556;23;19998;-69
2023/04/24 12:24:58;;;;;;;3.83;1.42;;;15.20;99.60;;;;;;6126388;23;20016;-70
2023/04/24 12:27:24;;;;;;;2.90;1.50;;;15.10;98.80;;;;;;6126778;23;20043;-70
2023/04/24 12:29:55;;;;;;;1.38;0.80;;;15.10;99.10;;;;;;6126995;23;20336;-69
2023/04/24 12:32:21;;;;;;;2.45;0.80;;;15.10;99.20;;;;;;6126753;23;20002;-69
2023/04/24 12:34:47;;;;;;;3.53;0.50;;;15.00;98.50;;;;;;6126980;23;20010;-69
2023/04/24 12:37:12;;;;;;;1.98;0.63;;;15.00;98.20;;;;;;6126628;23;20341;-70
2023/04/24 12:39:38;;;;;;;2.47;0.63;;;14.90;98.30;;;;;;6126717;23;20329;-69